ZLXY/XIY METAR and TAF weather

Enter ICAO airport designator
Station Type Date Time Source
ZLXY METAR 2020/02/21 02:00 UTC NOAA

ZLXY 210200Z 23002MPS 8000 NSC 05/M02 Q1035 NOSIG


Station Type Date Time Source
ZLXY Decoded METAR 2020/02/21 02:00 UTC NOAA

Xian/Xianyang, China (ZLXY) 34-26N 108-45E
Feb 20, 2020 - 09:00 PM EST / 2020.02.21 0200 UTC
Wind: from the SW (230 degrees) at 4 MPH (4 KT):0
Visibility: 4 mile(s):0
Temperature: 41 F (5 C)
Dew Point: 28 F (-2 C)
Relative Humidity: 60%
Pressure (altimeter): 30.56 in. Hg (1035 hPa)
ob: ZLXY 210200Z 23002MPS 8000 NSC 05/M02 Q1035 NOSIG
cycle: 2

Station Type Date Time Source
ZLXY TAF 2020/02/20 18:03 UTC NOAA

TAF ZLXY 201508Z 2018/2118 26004MPS 3000 HZ NSC TX13/2107Z TNM04/2022Z

Example: see airport list